Saturday, November 18, 2017, 6:21 AM GMT
Back to Local

CYWA, Petawawa, Ont.

Location: , , Canada Lat: 45.95
Local Time: 6:21 AM GMT ( 6:21 GMT) Lon: -77.317
Time Zone: GMT Elev: 426 ft

Show me the last for .
Show Coded

Time T Td Feel RH Dir Speed Gust Alt SLP Vis Weather Sky Remarks
2017-11-18 06:00 28 16 19 58 140° 10 - 29.91 29.93 9 OVC079 None
2017-11-18 05:00 28 18 20 63 110° 8 - 29.92 29.94 9 OVC074 None
2017-11-18 04:00 28 16 22 58 150° 6 - 29.97 29.99 9 BKN090 None
2017-11-18 03:00 28 16 22 58 140° 6 - 30.00 30.02 9 FEW090 None
2017-11-18 02:00 28 16 25 58 190° 3 - 30.03 30.05 9 CLR None
2017-11-18 01:00 28 14 22 54 130° 6 - 30.04 30.07 9 CLR None
2017-11-18 00:00 21 12 - 67 150° 2 - 30.06 30.09 9 CLR None
2017-11-17 23:00 25 14 - 62 100° 2 - 30.08 30.11 15 FEW100 None
2017-11-17 22:00 27 10 - 49 - Calm - 30.09 30.12 15 FEW100 BKN250 None
2017-11-17 21:00 28 7 - 39 350° 2 - 30.11 30.14 15 FEW100 SCT250 None
2017-11-17 20:00 30 9 23 39 270° 7 - 30.14 30.16 15 FEW250 None
2017-11-17 19:00 30 9 25 39 300° 5 - 30.15 30.18 15 FEW250 None
2017-11-17 18:00 28 9 22 42 290° 6 - 30.18 30.20 15 FEW250 None
2017-11-17 17:00 27 9 17 45 320° 9 - 30.20 30.23 15 FEW250 None
2017-11-17 16:00 25 9 15 49 340° 10 - 30.22 30.25 15 FEW250 None
2017-11-17 15:00 23 9 12 53 330° 12 - 30.23 30.25 15 FEW010 FEW250 None
2017-11-17 14:00 21 9 9 57 320° 13 - 30.23 30.25 15 FEW010 None
2017-11-17 13:00 19 10 4 67 330° 17 - 30.22 30.25 15 FEW010 None
2017-11-17 12:00 18 10 6 72 310° 9 - 30.22 30.24 15 FEW010 None
2017-11-17 11:00 19 10 7 67 320° 13 - 30.20 30.23 15 FEW020 None
2017-11-17 10:00 19 10 2 67 330° 16 23 30.18 - 9 None
2017-11-17 09:00 21 10 6 62 310° 15 21 30.17 - 9 None
2017-11-17 08:00 21 12 7 67 300° 10 17 30.14 - 9 None
2017-11-17 07:00 25 14 9 62 320° 20 25 30.11 - 9 None

Support USWX by starting your Amazon purchase here.